Time;durP1;ratioP1;P1;durP2;ratioP2;P2;SDS_P1;SDS_P2;PMS_P1;PMS_P2;Temp;Humidity;BMP_temperature;BMP_pressure;BME280_temperature;BME280_humidity;BME280_pressure;Samples;Min_cycle;Max_cycle;Signal;HPM_P1;HPM_P2
2021/09/22 00:02:07;;;;;;;17.77;14.05;;;12.30;98.50;;;;;;5033310;28;20124;-52
2021/09/22 00:04:33;;;;;;;17.20;13.60;;;12.30;98.20;;;;;;5032552;28;20034;-54
2021/09/22 00:06:59;;;;;;;25.02;18.63;;;12.20;98.50;;;;;;5032509;28;20059;-54
2021/09/22 00:09:25;;;;;;;29.73;21.23;;;12.20;98.40;;;;;;5031744;28;20029;-54
2021/09/22 00:11:50;;;;;;;19.55;14.88;;;12.20;98.80;;;;;;5025293;28;20034;-54
2021/09/22 00:14:16;;;;;;;24.02;17.23;;;12.10;98.70;;;;;;5027780;28;20116;-53
2021/09/22 00:16:42;;;;;;;27.02;19.10;;;12.10;98.70;;;;;;5032894;28;20517;-54
2021/09/22 00:19:07;;;;;;;36.35;24.50;;;12.10;98.90;;;;;;5032352;28;20124;-53
2021/09/22 00:21:33;;;;;;;42.85;26.58;;;12.10;99.20;;;;;;5033086;28;20404;-52
2021/09/22 00:23:58;;;;;;;38.15;26.27;;;12.20;99.50;;;;;;5021213;28;20042;-54
2021/09/22 00:26:24;;;;;;;37.92;26.40;;;12.20;99.50;;;;;;5031658;28;20042;-54
2021/09/22 00:28:50;;;;;;;40.13;25.75;;;12.20;99.50;;;;;;5032595;28;20037;-54
2021/09/22 00:31:16;;;;;;;36.30;25.00;;;12.20;99.60;;;;;;5030957;28;20493;-54
2021/09/22 00:33:42;;;;;;;35.85;24.33;;;12.20;99.50;;;;;;5031677;28;20041;-54
2021/09/22 00:36:07;;;;;;;37.97;25.20;;;12.20;99.50;;;;;;5031291;28;20480;-54
2021/09/22 00:38:33;;;;;;;35.83;25.25;;;12.20;99.50;;;;;;5032186;28;20041;-52
2021/09/22 00:40:59;;;;;;;34.92;24.63;;;12.20;99.70;;;;;;5031206;28;20029;-54
2021/09/22 00:43:25;;;;;;;37.10;24.40;;;12.20;99.70;;;;;;5032078;28;20045;-53
2021/09/22 00:45:50;;;;;;;41.38;23.95;;;12.20;99.70;;;;;;5031323;28;20048;-54
2021/09/22 00:48:16;;;;;;;37.22;25.08;;;12.20;99.70;;;;;;5030943;28;20140;-54
2021/09/22 00:50:41;;;;;;;35.58;24.77;;;12.20;99.70;;;;;;5024354;28;20476;-52
2021/09/22 00:53:10;;;;;;;32.85;23.20;;;12.20;99.80;;;;;;5031650;28;20079;-54
2021/09/22 00:55:37;;;;;;;33.70;23.10;;;12.20;99.80;;;;;;5028752;28;20079;-51
2021/09/22 00:58:05;;;;;;;34.90;22.65;;;12.20;99.80;;;;;;5002742;28;20049;-54
2021/09/22 01:00:31;;;;;;;31.85;22.42;;;12.20;99.70;;;;;;5029186;28;20671;-54
2021/09/22 01:02:57;;;;;;;33.47;22.38;;;12.20;99.70;;;;;;5023285;28;20085;-54
2021/09/22 01:05:25;;;;;;;33.03;23.75;;;12.20;99.60;;;;;;5030831;28;20463;-53
2021/09/22 01:07:51;;;;;;;37.97;24.85;;;12.20;99.60;;;;;;5031678;28;20099;-54
2021/09/22 01:10:18;;;;;;;36.38;25.08;;;12.10;99.70;;;;;;5031388;28;20037;-53
2021/09/22 01:12:44;;;;;;;40.05;25.77;;;12.10;99.70;;;;;;5027800;28;20034;-54
2021/09/22 01:15:10;;;;;;;30.08;21.92;;;12.10;99.80;;;;;;5026142;28;20120;-53
2021/09/22 01:17:36;;;;;;;32.72;23.00;;;12.10;99.70;;;;;;5028770;28;20037;-54
2021/09/22 01:20:07;;;;;;;38.35;25.25;;;12.10;99.70;;;;;;5019834;28;20206;-51
2021/09/22 01:22:33;;;;;;;32.22;23.02;;;12.00;99.80;;;;;;5031054;28;20072;-54
2021/09/22 01:24:59;;;;;;;31.40;22.75;;;12.00;99.80;;;;;;5024063;28;20065;-54
2021/09/22 01:27:25;;;;;;;29.60;21.05;;;12.00;99.90;;;;;;5023636;28;20052;-52
2021/09/22 01:29:52;;;;;;;32.22;22.85;;;12.00;99.80;;;;;;5028159;28;20229;-51
2021/09/22 01:32:19;;;;;;;18.63;13.98;;;12.00;99.70;;;;;;5028956;28;20392;-53
2021/09/22 01:34:45;;;;;;;20.40;14.73;;;11.90;99.60;;;;;;5011841;28;20096;-53
2021/09/22 01:37:11;;;;;;;28.30;19.00;;;11.90;98.70;;;;;;5030666;28;20049;-53
2021/09/22 01:39:42;;;;;;;24.25;16.55;;;11.80;98.90;;;;;;5030806;28;20037;-52
2021/09/22 01:42:08;;;;;;;22.52;15.43;;;11.70;98.70;;;;;;5030045;28;20049;-54
2021/09/22 01:44:35;;;;;;;26.83;19.30;;;11.60;98.50;;;;;;5029481;28;20386;-54
2021/09/22 01:47:02;;;;;;;31.05;22.25;;;11.60;98.80;;;;;;5026340;28;20045;-54
2021/09/22 01:49:28;;;;;;;37.45;23.95;;;11.60;99.20;;;;;;5030430;28;20532;-53
2021/09/22 01:51:59;;;;;;;37.35;24.88;;;11.60;99.40;;;;;;5023551;28;20030;-54
2021/09/22 01:54:24;;;;;;;36.15;24.08;;;11.60;99.60;;;;;;5000440;28;20049;-53
2021/09/22 01:56:50;;;;;;;37.60;24.58;;;11.60;99.80;;;;;;5024798;28;20030;-53
2021/09/22 01:59:16;;;;;;;36.65;24.55;;;11.70;99.80;;;;;;5029939;28;20033;-52
2021/09/22 02:01:42;;;;;;;39.58;26.35;;;11.70;99.80;;;;;;5031309;28;20048;-54
2021/09/22 02:04:07;;;;;;;36.22;25.48;;;11.70;99.80;;;;;;5010493;28;20452;-53
2021/09/22 02:06:33;;;;;;;41.20;25.63;;;11.70;99.90;;;;;;5030145;28;20042;-53
2021/09/22 02:08:58;;;;;;;44.78;26.00;;;11.70;99.70;;;;;;5020115;28;20044;-54
2021/09/22 02:11:24;;;;;;;37.88;25.48;;;11.70;99.70;;;;;;5026326;28;20401;-55
2021/09/22 02:13:49;;;;;;;41.10;26.02;;;11.70;99.80;;;;;;5028243;28;20029;-53
2021/09/22 02:16:15;;;;;;;44.00;27.67;;;11.70;99.90;;;;;;5028813;28;20132;-54
2021/09/22 02:18:41;;;;;;;40.05;27.33;;;11.70;99.90;;;;;;5030404;28;20245;-53
2021/09/22 02:21:10;;;;;;;43.25;27.55;;;11.70;99.90;;;;;;5030158;28;20089;-54
2021/09/22 02:23:39;;;;;;;44.45;27.55;;;11.70;99.90;;;;;;5012313;28;20080;-53
2021/09/22 02:26:05;;;;;;;34.28;22.73;;;11.70;99.90;;;;;;5028608;28;20041;-55
2021/09/22 02:28:32;;;;;;;36.72;23.92;;;11.70;99.90;;;;;;5027634;28;20068;-54
2021/09/22 02:30:58;;;;;;;38.03;24.27;;;11.70;99.80;;;;;;5030559;28;20088;-53
2021/09/22 02:33:23;;;;;;;26.75;18.25;;;11.60;99.70;;;;;;5018750;28;20042;-55
2021/09/22 02:35:49;;;;;;;36.28;23.30;;;11.60;99.60;;;;;;5022092;28;20490;-54
2021/09/22 02:38:14;;;;;;;38.20;23.98;;;11.50;99.40;;;;;;5030207;28;20037;-54
2021/09/22 02:40:40;;;;;;;39.00;24.63;;;11.50;99.50;;;;;;5030132;28;20041;-54
2021/09/22 02:43:05;;;;;;;39.00;25.92;;;11.40;99.60;;;;;;5029755;28;20052;-54
2021/09/22 02:45:31;;;;;;;42.03;26.52;;;11.50;99.70;;;;;;5023390;28;20076;-53
2021/09/22 02:47:57;;;;;;;36.17;25.50;;;11.50;99.80;;;;;;5020100;28;20030;-55
2021/09/22 02:50:23;;;;;;;56.90;26.27;;;11.50;99.80;;;;;;5030071;28;20604;-54
2021/09/22 02:52:49;;;;;;;128.30;26.55;;;11.40;99.90;;;;;;5025578;28;20041;-52
2021/09/22 02:55:15;;;;;;;165.43;27.80;;;11.40;99.90;;;;;;5022260;28;20183;-53
2021/09/22 02:57:40;;;;;;;131.38;27.48;;;11.30;99.90;;;;;;5025677;28;20049;-53
2021/09/22 03:00:07;;;;;;;76.82;27.35;;;11.30;99.90;;;;;;5026066;28;20041;-53
2021/09/22 03:02:33;;;;;;;133.98;27.73;;;11.20;99.90;;;;;;5024154;28;20065;-54
2021/09/22 03:04:59;;;;;;;189.85;30.30;;;11.20;99.90;;;;;;5018689;28;20046;-51
2021/09/22 03:07:24;;;;;;;166.30;28.55;;;11.20;99.90;;;;;;5033830;28;20052;-55
2021/09/22 03:09:50;;;;;;;136.88;28.67;;;11.20;99.90;;;;;;5033109;28;20076;-53
2021/09/22 03:12:15;;;;;;;111.57;27.35;;;11.20;99.90;;;;;;5032869;28;20408;-54
2021/09/22 03:14:41;;;;;;;93.82;27.42;;;11.10;99.90;;;;;;5031384;28;20076;-53
2021/09/22 03:17:07;;;;;;;121.35;26.52;;;11.10;99.90;;;;;;5033560;28;20396;-52
2021/09/22 03:19:32;;;;;;;107.47;26.40;;;11.10;99.90;;;;;;5033004;28;20087;-55
2021/09/22 03:21:58;;;;;;;148.45;26.80;;;11.00;99.90;;;;;;5013729;28;20045;-54
2021/09/22 03:24:24;;;;;;;150.77;27.67;;;11.00;99.90;;;;;;5009539;28;20042;-54
2021/09/22 03:26:49;;;;;;;93.70;28.13;;;11.00;99.90;;;;;;5022787;28;20034;-51
2021/09/22 03:29:15;;;;;;;114.45;29.00;;;11.00;99.90;;;;;;5029080;28;20436;-55
2021/09/22 03:31:42;;;;;;;118.45;28.10;;;11.00;99.90;;;;;;5030600;28;20724;-54
2021/09/22 03:34:08;;;;;;;82.10;25.63;;;11.00;99.90;;;;;;5029948;28;20571;-54
2021/09/22 03:36:34;;;;;;;112.60;25.98;;;11.00;99.90;;;;;;5031725;28;20091;-55
2021/09/22 03:38:59;;;;;;;96.13;25.63;;;10.90;99.90;;;;;;5032195;28;20061;-53
2021/09/22 03:41:25;;;;;;;141.27;28.98;;;10.90;99.90;;;;;;5023076;28;20071;-51
2021/09/22 03:43:50;;;;;;;126.25;26.05;;;10.90;99.90;;;;;;5032181;28;20485;-52
2021/09/22 03:46:16;;;;;;;171.52;26.92;;;10.90;99.90;;;;;;5031429;28;20448;-52
2021/09/22 03:48:41;;;;;;;190.55;28.50;;;10.80;99.90;;;;;;5026471;28;20046;-51
2021/09/22 03:51:07;;;;;;;101.15;26.08;;;10.80;99.90;;;;;;5030374;28;20025;-51
2021/09/22 03:53:32;;;;;;;122.32;26.90;;;10.80;99.90;;;;;;5033019;28;20159;-52
2021/09/22 03:55:58;;;;;;;154.63;26.77;;;10.70;99.90;;;;;;5028154;28;20038;-50
2021/09/22 03:58:24;;;;;;;92.47;24.70;;;10.70;99.90;;;;;;5031692;28;20120;-51
2021/09/22 04:00:49;;;;;;;103.30;25.65;;;10.70;99.90;;;;;;5018527;28;20037;-52
2021/09/22 04:03:15;;;;;;;85.07;25.95;;;10.70;99.90;;;;;;5032394;28;20053;-53
2021/09/22 04:05:40;;;;;;;70.38;26.27;;;10.60;99.90;;;;;;5022697;28;20521;-51
2021/09/22 04:08:06;;;;;;;153.02;29.20;;;10.60;99.90;;;;;;5030038;28;20068;-52
2021/09/22 04:10:32;;;;;;;207.05;28.10;;;10.70;99.90;;;;;;5032735;28;20120;-51
2021/09/22 04:12:57;;;;;;;165.30;27.33;;;10.60;99.90;;;;;;5030941;28;20038;-51
2021/09/22 04:15:23;;;;;;;154.25;27.48;;;10.60;99.90;;;;;;5029824;28;20394;-51
2021/09/22 04:17:48;;;;;;;321.02;30.02;;;10.60;99.90;;;;;;5031688;28;20045;-52
2021/09/22 04:20:14;;;;;;;195.32;28.08;;;10.60;99.90;;;;;;5032225;28;20037;-51
2021/09/22 04:22:39;;;;;;;154.70;27.02;;;10.50;99.90;;;;;;5025173;28;20045;-51
2021/09/22 04:25:07;;;;;;;127.63;24.98;;;10.50;99.90;;;;;;5031543;28;20064;-51
2021/09/22 04:27:33;;;;;;;164.13;25.80;;;10.50;99.90;;;;;;5031805;28;20041;-51
2021/09/22 04:29:58;;;;;;;124.13;24.60;;;10.50;99.90;;;;;;5031256;28;20564;-52
2021/09/22 04:32:24;;;;;;;153.88;26.38;;;10.40;99.90;;;;;;5027654;28;20735;-51
2021/09/22 04:34:50;;;;;;;118.80;25.20;;;10.40;99.90;;;;;;5031125;28;20061;-51
2021/09/22 04:37:15;;;;;;;88.03;25.33;;;10.40;99.90;;;;;;5032091;28;20062;-52
2021/09/22 04:39:41;;;;;;;63.67;24.48;;;10.40;99.90;;;;;;5029624;28;20076;-50
2021/09/22 04:42:06;;;;;;;77.13;23.75;;;10.30;99.90;;;;;;5002522;28;20045;-51
2021/09/22 04:44:32;;;;;;;63.97;23.92;;;10.40;99.90;;;;;;5029833;28;20044;-51
2021/09/22 04:46:58;;;;;;;153.80;24.65;;;10.30;99.90;;;;;;5030705;28;20048;-51
2021/09/22 04:49:23;;;;;;;63.92;24.77;;;10.30;99.90;;;;;;5031787;28;20036;-49
2021/09/22 04:51:49;;;;;;;81.97;23.27;;;10.30;99.90;;;;;;5031796;28;20068;-51
2021/09/22 04:54:14;;;;;;;112.95;25.02;;;10.30;99.90;;;;;;5031011;28;20529;-50
2021/09/22 04:56:40;;;;;;;57.95;24.35;;;10.20;99.90;;;;;;5031693;28;20037;-51
2021/09/22 04:59:05;;;;;;;98.95;25.25;;;10.20;99.90;;;;;;5014336;28;20051;-52
2021/09/22 05:01:31;;;;;;;55.42;23.92;;;10.20;99.90;;;;;;5031692;28;20559;-51
2021/09/22 05:03:56;;;;;;;111.90;25.60;;;10.20;99.90;;;;;;5031352;28;20048;-51
2021/09/22 05:06:22;;;;;;;103.15;25.90;;;10.20;99.90;;;;;;5030984;28;20076;-52
2021/09/22 05:08:47;;;;;;;68.60;24.10;;;10.20;99.90;;;;;;5031075;28;20061;-52
2021/09/22 05:11:13;;;;;;;52.67;24.23;;;10.20;99.90;;;;;;5031644;28;20471;-52
2021/09/22 05:13:39;;;;;;;59.00;26.50;;;10.20;99.90;;;;;;5031082;28;20087;-51
2021/09/22 05:16:04;;;;;;;89.72;25.45;;;10.20;99.90;;;;;;5023400;28;20623;-51
2021/09/22 05:18:30;;;;;;;76.55;24.15;;;10.20;99.90;;;;;;5031608;28;20037;-51
2021/09/22 05:20:55;;;;;;;39.70;22.30;;;10.20;99.90;;;;;;5030969;28;20531;-50
2021/09/22 05:23:21;;;;;;;51.33;24.05;;;10.20;99.90;;;;;;5031191;28;20045;-52
2021/09/22 05:25:47;;;;;;;34.65;24.15;;;10.20;99.90;;;;;;5030111;28;20397;-50
2021/09/22 05:28:12;;;;;;;49.17;24.20;;;10.20;99.90;;;;;;5030523;28;20080;-53
2021/09/22 05:30:38;;;;;;;45.90;24.35;;;10.20;99.90;;;;;;5030554;28;20041;-53
2021/09/22 05:33:08;;;;;;;59.08;23.48;;;10.20;99.90;;;;;;5025067;28;20531;-51
2021/09/22 05:35:33;;;;;;;39.50;23.42;;;10.20;99.90;;;;;;5028871;28;20560;-51
2021/09/22 05:37:59;;;;;;;58.78;24.55;;;10.20;99.90;;;;;;5013515;28;20172;-53
2021/09/22 05:40:25;;;;;;;66.38;26.02;;;10.20;99.90;;;;;;5029859;28;20128;-52
2021/09/22 05:42:51;;;;;;;50.40;24.98;;;10.20;99.90;;;;;;5030301;28;20076;-50
2021/09/22 05:45:17;;;;;;;34.05;23.73;;;10.20;99.90;;;;;;5013567;28;20053;-51
2021/09/22 05:47:42;;;;;;;38.67;24.83;;;10.20;99.90;;;;;;5030601;28;20044;-52
2021/09/22 05:50:08;;;;;;;71.90;25.98;;;10.20;99.90;;;;;;5031351;28;20094;-51
2021/09/22 05:52:34;;;;;;;59.40;26.17;;;10.20;99.90;;;;;;5030387;28;20432;-51
2021/09/22 05:54:59;;;;;;;57.22;25.50;;;10.30;99.90;;;;;;5027294;28;20038;-53
2021/09/22 05:57:25;;;;;;;44.75;25.33;;;10.30;99.90;;;;;;5029712;28;20041;-51
2021/09/22 05:59:51;;;;;;;71.97;26.42;;;10.30;99.90;;;;;;5029446;28;20037;-52
2021/09/22 06:02:16;;;;;;;72.25;25.70;;;10.30;99.90;;;;;;5029413;28;20116;-50
2021/09/22 06:04:42;;;;;;;52.25;26.05;;;10.30;99.90;;;;;;5023429;28;20417;-51
2021/09/22 06:07:07;;;;;;;78.03;26.13;;;10.30;99.90;;;;;;5030789;28;20045;-54
2021/09/22 06:09:33;;;;;;;69.38;28.60;;;10.30;99.90;;;;;;5029952;28;20049;-51
2021/09/22 06:11:58;;;;;;;58.72;26.20;;;10.30;99.90;;;;;;5030274;28;20037;-51
2021/09/22 06:14:24;;;;;;;58.92;27.55;;;10.30;99.90;;;;;;5029682;28;20060;-51
2021/09/22 06:16:49;;;;;;;67.03;28.02;;;10.30;99.90;;;;;;5030326;28;20043;-54
2021/09/22 06:19:15;;;;;;;48.20;27.13;;;10.40;99.90;;;;;;5028834;28;20520;-51
2021/09/22 06:21:41;;;;;;;49.95;27.75;;;10.40;99.90;;;;;;5028723;28;20045;-51
2021/09/22 06:24:07;;;;;;;50.40;28.88;;;10.50;99.90;;;;;;5030214;28;20132;-51
2021/09/22 06:26:33;;;;;;;49.97;28.30;;;10.50;99.90;;;;;;5029461;28;20041;-52
2021/09/22 06:28:58;;;;;;;49.03;28.60;;;10.60;99.90;;;;;;5026970;28;20064;-54
2021/09/22 06:31:24;;;;;;;64.75;29.80;;;10.60;99.90;;;;;;5022027;28;20045;-51
2021/09/22 06:33:50;;;;;;;53.75;28.92;;;10.60;99.90;;;;;;5028451;28;20724;-51
2021/09/22 06:36:16;;;;;;;57.80;30.15;;;10.70;99.90;;;;;;5028092;28;20037;-51
2021/09/22 06:38:41;;;;;;;61.92;31.83;;;10.80;99.90;;;;;;5028297;28;20080;-49
2021/09/22 06:41:07;;;;;;;57.83;31.15;;;10.80;99.90;;;;;;5030443;28;20041;-52
2021/09/22 06:43:33;;;;;;;54.40;29.92;;;10.90;99.90;;;;;;5032172;28;20041;-51
2021/09/22 06:45:59;;;;;;;55.13;30.95;;;10.90;99.90;;;;;;5031728;28;20048;-50
2021/09/22 06:48:25;;;;;;;56.20;31.00;;;11.00;99.90;;;;;;5033821;28;20044;-51
2021/09/22 06:50:50;;;;;;;55.13;31.02;;;11.00;99.90;;;;;;5033986;28;20634;-51
2021/09/22 06:53:16;;;;;;;54.53;31.92;;;11.10;99.90;;;;;;5034163;28;20056;-51
2021/09/22 06:55:41;;;;;;;60.72;33.03;;;11.10;99.90;;;;;;5030616;28;20046;-49
2021/09/22 06:58:07;;;;;;;64.43;33.80;;;11.20;99.90;;;;;;5033860;28;20049;-52
2021/09/22 07:00:37;;;;;;;63.38;33.38;;;11.30;99.90;;;;;;5034283;28;20048;-51
2021/09/22 07:03:05;;;;;;;69.00;35.03;;;11.30;99.90;;;;;;5033749;28;20045;-51
2021/09/22 07:05:31;;;;;;;66.47;35.97;;;11.40;99.90;;;;;;5032403;28;20076;-51
2021/09/22 07:07:57;;;;;;;77.13;37.58;;;11.50;99.90;;;;;;5071829;22;20064;-47
2021/09/22 07:10:22;;;;;;;78.53;38.75;;;11.60;99.90;;;;;;5074629;28;20045;-50
2021/09/22 07:12:50;;;;;;;82.10;42.20;;;11.60;99.90;;;;;;5073255;28;20051;-48
2021/09/22 07:15:16;;;;;;;78.45;40.05;;;11.70;99.90;;;;;;5073519;28;20033;-52
2021/09/22 07:17:42;;;;;;;84.88;40.83;;;11.80;99.90;;;;;;5062130;28;20067;-52
2021/09/22 07:20:09;;;;;;;90.80;42.95;;;11.80;99.90;;;;;;5061556;28;20041;-52
2021/09/22 07:22:34;;;;;;;80.32;42.05;;;11.90;99.90;;;;;;5061756;28;20136;-52
2021/09/22 07:25:00;;;;;;;81.88;43.13;;;12.00;99.90;;;;;;5062592;28;20119;-52
2021/09/22 07:27:25;;;;;;;88.72;43.85;;;12.10;99.90;;;;;;5065633;28;20064;-52
2021/09/22 07:29:51;;;;;;;90.47;44.80;;;12.10;99.90;;;;;;5053959;28;20044;-52
2021/09/22 07:32:16;;;;;;;89.65;45.90;;;12.20;99.90;;;;;;5055826;28;20564;-52
2021/09/22 07:34:42;;;;;;;90.93;47.88;;;12.30;99.90;;;;;;5059714;28;20029;-52
2021/09/22 07:37:10;;;;;;;92.40;46.95;;;12.40;99.90;;;;;;5064835;28;20064;-52
2021/09/22 07:39:37;;;;;;;86.95;47.22;;;12.50;99.90;;;;;;5056567;28;20460;-52
2021/09/22 07:42:03;;;;;;;86.88;47.42;;;12.60;99.90;;;;;;5061354;28;20065;-53
2021/09/22 07:44:28;;;;;;;83.93;46.70;;;12.80;99.90;;;;;;5068191;28;20070;-53
2021/09/22 07:46:54;;;;;;;87.55;48.55;;;12.90;99.90;;;;;;5064055;28;20029;-49
2021/09/22 07:49:22;;;;;;;87.28;49.22;;;13.00;99.90;;;;;;5062010;28;20064;-51
2021/09/22 07:51:50;;;;;;;83.05;45.10;;;13.10;99.90;;;;;;5067089;28;20408;-51
2021/09/22 07:54:16;;;;;;;83.68;46.78;;;13.10;99.90;;;;;;5068233;28;20040;-50
2021/09/22 07:56:42;;;;;;;78.28;46.85;;;13.20;99.90;;;;;;5062993;28;20095;-50
2021/09/22 07:59:07;;;;;;;79.05;45.13;;;13.40;99.90;;;;;;5069962;28;20032;-51
2021/09/22 08:01:33;;;;;;;77.05;44.53;;;13.40;99.90;;;;;;5064367;28;20196;-50
2021/09/22 08:03:59;;;;;;;81.68;47.72;;;13.50;99.90;;;;;;5047052;28;20044;-56
2021/09/22 08:06:24;;;;;;;75.65;45.72;;;13.50;99.90;;;;;;5065639;28;20088;-51
2021/09/22 08:08:50;;;;;;;76.10;46.25;;;13.60;99.90;;;;;;5068781;28;20496;-50
2021/09/22 08:11:16;;;;;;;75.55;46.33;;;13.70;99.90;;;;;;5067278;28;20040;-51
2021/09/22 08:13:42;;;;;;;70.05;45.53;;;13.80;99.90;;;;;;5069766;28;20515;-52
2021/09/22 08:16:08;;;;;;;71.95;46.00;;;13.90;99.90;;;;;;5069351;28;20044;-48
2021/09/22 08:18:33;;;;;;;75.90;46.10;;;14.00;99.90;;;;;;5069482;28;20078;-51
2021/09/22 08:20:59;;;;;;;68.05;44.47;;;14.10;99.90;;;;;;5068960;28;20041;-49
2021/09/22 08:23:25;;;;;;;66.82;44.80;;;14.20;99.90;;;;;;5069615;28;20098;-51
2021/09/22 08:25:51;;;;;;;74.40;45.80;;;14.40;99.90;;;;;;5065745;28;20040;-51
2021/09/22 08:28:17;;;;;;;74.35;46.05;;;14.50;99.90;;;;;;5053912;28;20040;-51
2021/09/22 08:30:44;;;;;;;66.78;43.95;;;14.60;99.90;;;;;;5067278;28;20443;-50
2021/09/22 08:33:10;;;;;;;64.53;43.17;;;14.80;99.90;;;;;;5067132;28;20174;-49
2021/09/22 08:35:35;;;;;;;65.90;42.72;;;14.90;99.90;;;;;;5053292;28;20092;-52
2021/09/22 08:38:01;;;;;;;62.47;43.25;;;15.00;99.90;;;;;;5072219;28;20041;-50
2021/09/22 08:40:28;;;;;;;63.30;42.13;;;15.10;99.90;;;;;;5072247;28;20492;-51
2021/09/22 08:42:53;;;;;;;63.58;39.90;;;15.20;99.90;;;;;;5071882;28;20403;-49
2021/09/22 08:45:19;;;;;;;58.85;40.20;;;15.20;99.90;;;;;;5071131;28;20058;-51
2021/09/22 08:47:48;;;;;;;63.28;40.38;;;15.30;99.90;;;;;;5054737;28;20028;-52
2021/09/22 08:50:18;;;;;;;58.35;38.58;;;15.30;99.80;;;;;;5071850;28;20045;-51
2021/09/22 08:52:46;;;;;;;56.55;38.75;;;15.30;99.70;;;;;;5054752;28;20222;-50
2021/09/22 08:55:13;;;;;;;52.10;38.63;;;15.40;99.70;;;;;;5054318;28;20040;-52
2021/09/22 08:57:39;;;;;;;55.85;37.50;;;15.40;99.50;;;;;;5054157;28;20047;-52
2021/09/22 09:00:08;;;;;;;52.38;35.85;;;15.60;99.60;;;;;;5061558;28;20048;-51
2021/09/22 09:02:39;;;;;;;50.67;33.92;;;15.70;99.60;;;;;;5055927;28;20491;-51
2021/09/22 09:05:11;;;;;;;43.13;29.17;;;15.80;99.00;;;;;;5070380;28;20542;-52
2021/09/22 09:08:00;;;;;;;45.58;31.20;;;15.90;98.50;;;;;;5057650;28;20501;-52
2021/09/22 09:10:32;;;;;;;40.28;29.98;;;16.10;98.10;;;;;;5060713;28;20047;-51
2021/09/22 09:13:08;;;;;;;;;;;16.20;97.80;;;;;;5073133;28;20037;-49
2021/09/22 09:15:40;;;;;;;42.28;29.75;;;16.20;97.80;;;;;;5071576;28;19916;-50
2021/09/22 09:18:17;;;;;;;38.30;28.20;;;16.30;97.40;;;;;;5071376;28;20499;-53
2021/09/22 09:20:47;;;;;;;40.50;29.80;;;16.40;97.20;;;;;;5070538;28;20522;-48
2021/09/22 09:23:16;;;;;;;40.90;29.85;;;16.50;97.00;;;;;;5070033;28;20041;-53
2021/09/22 09:25:56;;;;;;;38.85;27.25;;;16.60;97.00;;;;;;5074311;28;20032;-53
2021/09/22 09:28:26;;;;;;;40.13;27.92;;;16.70;96.70;;;;;;5072098;28;20037;-52
2021/09/22 09:31:02;;;;;;;39.75;28.23;;;16.70;96.30;;;;;;5054515;28;20492;-51
2021/09/22 09:33:35;;;;;;;38.63;27.88;;;16.70;96.50;;;;;;5061380;28;20389;-52
2021/09/22 09:36:26;;;;;;;39.63;29.00;;;16.70;96.40;;;;;;5063824;28;20037;-50
2021/09/22 09:39:20;;;;;;;39.10;27.45;;;16.90;96.60;;;;;;5069625;28;20059;-52
2021/09/22 09:41:50;;;;;;;;;;;17.00;96.50;;;;;;5059639;28;20040;-53
2021/09/22 09:44:21;;;;;;;37.75;27.10;;;17.00;96.30;;;;;;5063342;28;19920;-53
2021/09/22 09:46:47;;;;;;;38.00;27.48;;;17.00;96.20;;;;;;5071264;28;20093;-51
2021/09/22 09:49:24;;;;;;;34.75;26.13;;;17.20;96.30;;;;;;5071513;28;20102;-52
2021/09/22 09:52:00;;;;;;;33.80;25.80;;;17.30;96.10;;;;;;5070852;28;20036;-52
2021/09/22 09:54:36;;;;;;;33.20;24.88;;;17.50;95.20;;;;;;5065670;28;20033;-53
2021/09/22 09:57:12;;;;;;;32.92;24.45;;;17.60;95.20;;;;;;5064066;28;20051;-50
2021/09/22 09:59:51;;;;;;;35.65;25.38;;;17.60;94.90;;;;;;5064595;28;20041;-50
2021/09/22 10:02:29;;;;;;;37.40;25.88;;;17.70;94.80;;;;;;5069378;28;20032;-51
2021/09/22 10:04:56;;;;;;;31.38;24.67;;;17.80;94.90;;;;;;5052527;28;20524;-53
2021/09/22 10:07:22;;;;;;;32.75;24.90;;;17.80;94.40;;;;;;5054365;28;20135;-49
2021/09/22 10:09:50;;;;;;;36.50;24.83;;;17.90;94.50;;;;;;5067685;28;20416;-52
2021/09/22 10:12:17;;;;;;;35.50;24.88;;;17.90;94.20;;;;;;5070749;28;20496;-51
2021/09/22 10:14:44;;;;;;;32.42;24.88;;;18.00;94.30;;;;;;5076702;28;20142;-52
2021/09/22 10:17:10;;;;;;;36.60;24.85;;;18.00;94.30;;;;;;5072220;28;20051;-51
2021/09/22 10:19:36;;;;;;;33.42;23.15;;;18.10;94.30;;;;;;5060871;28;20080;-53
2021/09/22 10:22:04;;;;;;;34.10;23.77;;;18.10;94.30;;;;;;5067592;28;20043;-52
2021/09/22 10:24:30;;;;;;;29.00;21.80;;;18.10;94.00;;;;;;5065124;28;20161;-52
2021/09/22 10:26:56;;;;;;;30.80;20.73;;;18.10;94.10;;;;;;5054495;28;20548;-52
2021/09/22 10:29:27;;;;;;;31.83;22.67;;;18.10;94.10;;;;;;5067455;28;20059;-51
2021/09/22 10:31:55;;;;;;;32.63;22.83;;;18.20;93.90;;;;;;5061477;28;20033;-53
2021/09/22 10:34:27;;;;;;;30.55;22.30;;;18.10;93.90;;;;;;5053088;28;20083;-52
2021/09/22 10:36:52;;;;;;;30.33;21.88;;;18.20;93.90;;;;;;5060387;28;20091;-53
2021/09/22 10:39:39;;;;;;;30.98;20.63;;;18.20;94.10;;;;;;5049936;28;20037;-53
2021/09/22 10:42:34;;;;;;;28.50;21.83;;;18.30;93.20;;;;;;5053930;28;20040;-52
2021/09/22 10:45:29;;;;;;;32.03;20.88;;;18.40;93.20;;;;;;5066470;28;20086;-53
2021/09/22 10:48:22;;;;;;;27.92;19.70;;;18.50;93.00;;;;;;5051666;28;20059;-52
2021/09/22 10:50:51;;;;;;;22.58;17.50;;;18.70;93.50;;;;;;5062578;28;20033;-53
2021/09/22 10:53:35;;;;;;;25.00;17.23;;;18.80;93.00;;;;;;5056011;28;20483;-53
2021/09/22 10:56:02;;;;;;;25.77;16.17;;;18.90;92.40;;;;;;5069036;28;20400;-53
2021/09/22 10:58:54;;;;;;;23.42;13.60;;;19.00;92.20;;;;;;5065887;28;20043;-54
2021/09/22 11:01:51;;;;;;;18.05;13.95;;;18.90;91.60;;;;;;5060806;28;20041;-54
2021/09/22 11:04:22;;;;;;;21.55;14.02;;;18.80;90.40;;;;;;5057626;28;20045;-52
2021/09/22 11:06:56;;;;;;;23.10;15.02;;;18.70;91.30;;;;;;5050625;28;20033;-51
2021/09/22 11:09:24;;;;;;;21.55;15.40;;;18.50;91.40;;;;;;5063816;28;20041;-53
2021/09/22 11:11:56;;;;;;;18.65;13.88;;;18.40;91.80;;;;;;5052645;28;20044;-54
2021/09/22 11:14:30;;;;;;;24.35;13.82;;;18.30;91.90;;;;;;5057430;28;20045;-53
2021/09/22 11:17:42;;;;;;;22.65;14.32;;;18.20;91.90;;;;;;5056595;28;20142;-53
2021/09/22 11:20:08;;;;;;;22.88;16.05;;;18.10;91.90;;;;;;5046302;28;20049;-53
2021/09/22 11:22:36;;;;;;;21.92;14.38;;;18.20;92.10;;;;;;5054709;28;20052;-53
2021/09/22 11:25:07;;;;;;;19.85;14.38;;;18.40;92.10;;;;;;5050090;28;20049;-55
2021/09/22 11:27:33;;;;;;;20.25;14.45;;;18.60;92.20;;;;;;5060425;28;20047;-54
2021/09/22 11:30:09;;;;;;;22.05;13.85;;;18.90;92.10;;;;;;5067338;28;20048;-52
2021/09/22 11:32:36;;;;;;;19.42;13.13;;;19.10;91.60;;;;;;5049597;28;20062;-52
2021/09/22 11:35:10;;;;;;;19.73;11.55;;;19.30;91.10;;;;;;5055904;28;20049;-51
2021/09/22 11:37:37;;;;;;;18.40;11.60;;;19.40;90.20;;;;;;5066769;28;20044;-54
2021/09/22 11:40:33;;;;;;;21.10;12.50;;;19.60;90.20;;;;;;5059238;28;20058;-53
2021/09/22 11:43:19;;;;;;;20.70;13.95;;;19.60;90.00;;;;;;5051708;28;20586;-55
2021/09/22 11:46:01;;;;;;;22.00;14.55;;;19.50;88.60;;;;;;5063155;28;20133;-55
2021/09/22 11:48:32;;;;;;;19.85;14.30;;;19.30;89.10;;;;;;5067993;28;20114;-51
2021/09/22 11:50:59;;;;;;;20.55;14.23;;;19.10;90.00;;;;;;5066166;28;20037;-53
2021/09/22 11:53:30;;;;;;;20.30;13.98;;;19.20;90.20;;;;;;5060803;28;20035;-53
2021/09/22 11:55:56;;;;;;;23.42;13.07;;;19.40;90.40;;;;;;5053735;28;20412;-54
2021/09/22 11:58:34;;;;;;;18.55;11.23;;;19.60;90.40;;;;;;5067986;28;20048;-54
2021/09/22 12:01:02;;;;;;;19.27;10.85;;;19.80;89.20;;;;;;5056713;28;20130;-53
2021/09/22 12:03:31;;;;;;;16.38;10.65;;;20.00;88.10;;;;;;5060145;28;20130;-52
2021/09/22 12:06:17;;;;;;;19.88;10.82;;;20.10;86.00;;;;;;5061969;28;20044;-54
2021/09/22 12:08:46;;;;;;;20.17;11.90;;;20.20;80.20;;;;;;5059852;28;20382;-54
2021/09/22 12:11:16;;;;;;;19.65;12.32;;;20.30;83.40;;;;;;5059642;28;20041;-54
2021/09/22 12:13:44;;;;;;;18.65;12.52;;;20.30;82.00;;;;;;5053960;28;20029;-54
2021/09/22 12:16:09;;;;;;;25.15;14.60;;;20.40;82.00;;;;;;5068285;28;20543;-53
2021/09/22 12:18:37;;;;;;;24.73;14.45;;;20.30;82.10;;;;;;5068706;28;20048;-53
2021/09/22 12:21:04;;;;;;;22.27;13.50;;;20.20;82.60;;;;;;5062412;28;20098;-50
2021/09/22 12:23:32;;;;;;;19.42;11.00;;;20.00;83.70;;;;;;5076006;28;20132;-54
2021/09/22 12:26:15;;;;;;;22.00;10.70;;;19.90;84.20;;;;;;5064654;28;20080;-54
2021/09/22 12:28:42;;;;;;;17.73;10.23;;;19.80;84.70;;;;;;5064811;28;20046;-52
2021/09/22 12:31:17;;;;;;;16.88;9.75;;;19.60;85.40;;;;;;5073042;28;20047;-52